createdAt,value
2023-04-02T00:00:19.296Z,8.68
2023-04-02T00:02:45.753Z,8.69
2023-04-02T00:05:16.288Z,8.61
2023-04-02T00:07:44.898Z,8.65
2023-04-02T00:10:11.757Z,8.40
2023-04-02T00:12:38.204Z,8.43
2023-04-02T00:15:04.661Z,8.68
2023-04-02T00:17:31.095Z,8.73
2023-04-02T00:19:57.715Z,8.56
2023-04-02T00:22:24.166Z,8.67
2023-04-02T00:24:50.848Z,8.61
2023-04-02T00:27:17.352Z,8.23
2023-04-02T00:29:43.795Z,8.14
2023-04-02T00:32:10.300Z,8.25
2023-04-02T00:34:36.769Z,7.87
2023-04-02T00:37:03.198Z,7.88
2023-04-02T00:39:29.639Z,8.07
2023-04-02T00:42:05.082Z,8.08
2023-04-02T00:44:33.220Z,8.04
2023-04-02T00:47:01.294Z,8.03
2023-04-02T00:49:27.751Z,7.91
2023-04-02T00:51:54.163Z,8.06
2023-04-02T00:54:20.785Z,7.84
2023-04-02T00:56:47.305Z,7.86
2023-04-02T00:59:13.776Z,7.68
2023-04-02T01:01:42.901Z,7.59
2023-04-02T01:04:10.324Z,7.60
2023-04-02T01:06:37.381Z,7.48
2023-04-02T01:09:03.999Z,7.51
2023-04-02T01:11:30.497Z,7.47
2023-04-02T01:13:56.922Z,7.32
2023-04-02T01:16:23.451Z,7.60
2023-04-02T01:18:50.548Z,7.63
2023-04-02T01:21:18.006Z,7.22
2023-04-02T01:23:44.438Z,7.60
2023-04-02T01:26:10.891Z,7.76
2023-04-02T01:28:37.303Z,7.46
2023-04-02T01:31:03.863Z,7.27
2023-04-02T01:33:30.341Z,7.33
2023-04-02T01:35:56.898Z,6.99
2023-04-02T01:38:23.409Z,6.99
2023-04-02T01:40:49.837Z,6.91
2023-04-02T01:43:16.294Z,6.96
2023-04-02T01:45:42.709Z,7.18
2023-04-02T01:48:09.185Z,6.99
2023-04-02T01:50:37.451Z,6.80
2023-04-02T01:53:03.975Z,6.97
2023-04-02T01:55:30.450Z,6.79
2023-04-02T01:57:56.904Z,6.58
2023-04-02T02:00:23.340Z,6.65
2023-04-02T02:02:49.785Z,6.47
2023-04-02T02:05:16.225Z,6.64
2023-04-02T02:07:42.636Z,6.59
2023-04-02T02:10:09.053Z,6.58
2023-04-02T02:12:35.505Z,6.57
2023-04-02T02:15:01.978Z,6.41
2023-04-02T02:17:28.499Z,6.22
2023-04-02T02:19:54.929Z,6.41
2023-04-02T02:22:21.494Z,6.20
2023-04-02T02:24:47.944Z,6.19
2023-04-02T02:27:14.375Z,6.26
2023-04-02T02:29:41.247Z,6.23
2023-04-02T02:32:07.757Z,6.23
2023-04-02T02:34:34.242Z,6.27
2023-04-02T02:37:00.753Z,6.38
2023-04-02T02:39:28.203Z,6.01
2023-04-02T02:41:54.756Z,6.31
2023-04-02T02:44:21.177Z,6.28
2023-04-02T02:46:47.586Z,6.55
2023-04-02T02:49:14.054Z,6.51
2023-04-02T02:51:40.686Z,6.39
2023-04-02T02:54:07.976Z,6.40
2023-04-02T02:56:34.413Z,6.58
2023-04-02T02:59:00.824Z,6.29
2023-04-02T03:01:27.471Z,5.88
2023-04-02T03:03:54.196Z,6.10
2023-04-02T03:06:21.032Z,6.26
2023-04-02T03:08:47.472Z,5.93
2023-04-02T03:11:13.903Z,5.74
2023-04-02T03:13:40.505Z,5.74
2023-04-02T03:16:07.033Z,5.46
2023-04-02T03:18:33.772Z,5.64
2023-04-02T03:21:00.182Z,5.99
2023-04-02T03:23:26.707Z,5.81
2023-04-02T03:25:53.121Z,5.75
2023-04-02T03:28:19.545Z,5.90
2023-04-02T03:30:46.011Z,5.64
2023-04-02T03:33:12.453Z,5.80
2023-04-02T03:35:39.047Z,5.76
2023-04-02T03:38:05.650Z,5.69
2023-04-02T03:40:32.291Z,5.85
2023-04-02T03:42:58.733Z,5.55
2023-04-02T03:45:25.157Z,5.62
2023-04-02T03:47:51.652Z,5.35
2023-04-02T03:50:18.104Z,5.42
2023-04-02T03:52:44.579Z,5.52
2023-04-02T03:55:11.015Z,5.82
2023-04-02T03:57:37.433Z,5.62
2023-04-02T04:00:05.226Z,5.52
2023-04-02T04:02:31.880Z,5.32
2023-04-02T04:04:58.440Z,5.17
2023-04-02T04:07:24.834Z,5.13
2023-04-02T04:09:51.343Z,5.40
2023-04-02T04:12:18.841Z,5.34
2023-04-02T04:14:45.438Z,5.39
2023-04-02T04:17:14.161Z,5.52
2023-04-02T04:19:40.588Z,5.52
2023-04-02T04:22:07.788Z,5.07
2023-04-02T04:24:34.187Z,5.12
2023-04-02T04:27:04.227Z,5.46
2023-04-02T04:29:31.016Z,5.12
2023-04-02T04:31:57.465Z,5.35
2023-04-02T04:34:23.978Z,5.22
2023-04-02T04:36:54.770Z,5.08
2023-04-02T04:39:23.655Z,4.86
2023-04-02T04:41:50.099Z,4.99
2023-04-02T04:44:17.377Z,4.92
2023-04-02T04:46:43.867Z,5.33
2023-04-02T04:49:10.423Z,5.44
2023-04-02T04:51:36.858Z,4.81
2023-04-02T04:54:03.325Z,4.62
2023-04-02T04:56:29.799Z,4.96
2023-04-02T04:58:56.371Z,4.90
2023-04-02T05:01:22.837Z,4.62
2023-04-02T05:03:49.320Z,4.75
2023-04-02T05:06:15.916Z,4.39
2023-04-02T05:08:42.345Z,4.74
2023-04-02T05:11:08.775Z,4.53
2023-04-02T05:13:35.663Z,4.55
2023-04-02T05:16:02.184Z,4.72
2023-04-02T05:18:28.682Z,4.81
2023-04-02T05:20:55.478Z,4.64
2023-04-02T05:23:22.004Z,4.53
2023-04-02T05:25:48.433Z,4.54
2023-04-02T05:28:14.865Z,4.28
2023-04-02T05:30:41.304Z,4.59
2023-04-02T05:33:08.168Z,4.59
2023-04-02T05:35:34.846Z,4.81
2023-04-02T05:38:04.479Z,4.94
2023-04-02T05:40:31.254Z,4.70
2023-04-02T05:42:57.677Z,4.46
2023-04-02T05:45:24.161Z,4.25
2023-04-02T05:47:50.690Z,4.29
2023-04-02T05:50:17.290Z,4.62
2023-04-02T05:52:43.705Z,4.70
2023-04-02T05:55:10.156Z,4.45
2023-04-02T05:57:44.514Z,4.46
2023-04-02T06:00:13.443Z,4.52
2023-04-02T06:02:40.063Z,4.72
2023-04-02T06:05:06.538Z,4.32
2023-04-02T06:07:33.056Z,4.44
2023-04-02T06:09:59.489Z,4.41
2023-04-02T06:12:25.910Z,4.40
2023-04-02T06:14:52.380Z,4.48
2023-04-02T06:17:18.828Z,4.23
2023-04-02T06:19:46.008Z,3.89
2023-04-02T06:22:12.428Z,4.12
2023-04-02T06:24:38.916Z,3.82
2023-04-02T06:27:06.681Z,3.96
2023-04-02T06:29:38.489Z,3.90
2023-04-02T06:32:04.918Z,3.97
2023-04-02T06:34:32.009Z,4.08
2023-04-02T06:36:58.541Z,4.21
2023-04-02T06:39:24.959Z,4.11
2023-04-02T06:41:51.414Z,3.83
2023-04-02T06:44:18.954Z,4.04
2023-04-02T06:46:45.414Z,3.91
2023-04-02T06:49:11.840Z,3.82
2023-04-02T06:51:38.254Z,3.77
2023-04-02T06:54:09.453Z,4.00
2023-04-02T06:56:35.993Z,4.15
2023-04-02T06:59:04.885Z,3.74
2023-04-02T07:01:31.423Z,3.87
2023-04-02T07:03:57.935Z,4.01
2023-04-02T07:06:24.368Z,4.26
2023-04-02T07:08:50.849Z,4.17
2023-04-02T07:11:19.412Z,4.20
2023-04-02T07:13:47.111Z,3.80
2023-04-02T07:16:13.543Z,4.07
2023-04-02T07:18:40.242Z,4.15
2023-04-02T07:21:06.698Z,4.09
2023-04-02T07:23:33.122Z,4.00
2023-04-02T07:25:59.714Z,3.81
2023-04-02T07:28:26.268Z,4.01
2023-04-02T07:30:52.698Z,3.80
2023-04-02T07:33:19.175Z,3.91
2023-04-02T07:35:45.625Z,4.07
2023-04-02T07:38:12.117Z,4.14
2023-04-02T07:40:38.549Z,4.26
2023-04-02T07:43:05.015Z,4.49
2023-04-02T07:45:31.730Z,4.01
2023-04-02T07:47:58.199Z,4.11
2023-04-02T07:50:24.648Z,4.15
2023-04-02T07:52:51.076Z,3.87
2023-04-02T07:55:17.549Z,4.14
2023-04-02T07:57:46.343Z,4.14
2023-04-02T08:00:13.563Z,4.22
2023-04-02T08:02:40.029Z,4.15
2023-04-02T08:05:07.027Z,4.23
2023-04-02T08:07:33.498Z,4.24
2023-04-02T08:10:00.064Z,3.90
2023-04-02T08:12:26.530Z,3.97
2023-04-02T08:14:52.945Z,4.27
2023-04-02T08:17:19.432Z,4.18
2023-04-02T08:19:54.852Z,4.41
2023-04-02T08:22:21.834Z,4.43
2023-04-02T08:24:48.284Z,4.50
2023-04-02T08:27:15.324Z,4.14
2023-04-02T08:29:41.773Z,4.21
2023-04-02T08:32:08.205Z,4.12
2023-04-02T08:34:34.642Z,4.35
2023-04-02T08:37:02.091Z,4.31
2023-04-02T08:39:33.193Z,4.55
2023-04-02T08:41:59.892Z,4.14
2023-04-02T08:44:26.320Z,4.24
2023-04-02T08:46:52.824Z,3.93
2023-04-02T08:49:19.276Z,4.22
2023-04-02T08:51:45.924Z,4.24
2023-04-02T08:54:12.358Z,4.60
2023-04-02T08:56:38.977Z,4.52
2023-04-02T08:59:05.429Z,4.43
2023-04-02T09:01:34.869Z,4.65
2023-04-02T09:04:01.696Z,4.63
2023-04-02T09:06:29.373Z,4.61
2023-04-02T09:08:55.825Z,4.54
2023-04-02T09:11:22.446Z,3.84
2023-04-02T09:13:48.966Z,3.80
2023-04-02T09:16:16.157Z,4.21
2023-04-02T09:18:42.750Z,4.16
2023-04-02T09:21:10.115Z,4.43
2023-04-02T09:23:36.541Z,4.49
2023-04-02T09:26:04.450Z,4.39
2023-04-02T09:28:31.168Z,4.33
2023-04-02T09:30:57.591Z,4.68
2023-04-02T09:33:24.012Z,4.44
2023-04-02T09:35:50.746Z,4.86
2023-04-02T09:38:17.304Z,4.32
2023-04-02T09:40:43.920Z,3.92
2023-04-02T09:43:10.397Z,3.90
2023-04-02T09:45:37.224Z,4.07
2023-04-02T09:48:03.908Z,3.71
2023-04-02T09:50:30.680Z,3.72
2023-04-02T09:52:57.169Z,3.77
2023-04-02T09:55:24.472Z,3.55
2023-04-02T09:57:50.955Z,3.59
2023-04-02T10:00:30.650Z,3.58
2023-04-02T10:03:04.309Z,3.74
2023-04-02T10:05:40.703Z,3.96
2023-04-02T10:08:08.678Z,3.98
2023-04-02T10:10:35.273Z,3.72
2023-04-02T10:13:01.860Z,3.53
2023-04-02T10:15:28.311Z,4.16
2023-04-02T10:17:54.911Z,3.76
2023-04-02T10:20:21.357Z,4.08
2023-04-02T10:22:47.779Z,4.14
2023-04-02T10:25:14.211Z,4.02
2023-04-02T10:27:40.724Z,4.50
2023-04-02T10:30:07.170Z,4.23
2023-04-02T10:32:33.745Z,4.14
2023-04-02T10:35:00.204Z,4.10
2023-04-02T10:37:26.825Z,3.98
2023-04-02T10:39:53.300Z,4.28
2023-04-02T10:42:19.793Z,4.47
2023-04-02T10:44:46.357Z,4.72
2023-04-02T10:47:12.797Z,4.18
2023-04-02T10:49:39.307Z,4.44
2023-04-02T10:52:05.810Z,4.49
2023-04-02T10:54:32.239Z,4.21
2023-04-02T10:56:58.688Z,4.46
2023-04-02T10:59:25.166Z,4.80
2023-04-02T11:01:51.817Z,4.90
2023-04-02T11:04:18.346Z,5.03
2023-04-02T11:06:44.777Z,4.90
2023-04-02T11:09:11.381Z,5.07
2023-04-02T11:11:37.820Z,4.86
2023-04-02T11:14:04.246Z,4.44
2023-04-02T11:16:30.978Z,4.29
2023-04-02T11:18:57.479Z,4.47
2023-04-02T11:21:24.192Z,4.65
2023-04-02T11:23:50.635Z,4.62
2023-04-02T11:26:17.079Z,4.57
2023-04-02T11:28:43.516Z,4.60
2023-04-02T11:31:10.062Z,4.48
2023-04-02T11:33:39.048Z,4.35
2023-04-02T11:36:07.538Z,4.49
2023-04-02T11:38:33.981Z,4.60
2023-04-02T11:41:00.605Z,4.59
2023-04-02T11:43:27.053Z,4.20
2023-04-02T11:45:53.753Z,4.45
2023-04-02T11:48:20.246Z,4.39
2023-04-02T11:50:47.966Z,4.70
2023-04-02T11:53:15.046Z,4.57
2023-04-02T11:55:41.606Z,4.61
2023-04-02T11:58:08.132Z,4.96
2023-04-02T12:00:34.746Z,5.03
2023-04-02T12:03:03.987Z,5.17
2023-04-02T12:05:30.692Z,5.06
2023-04-02T12:07:57.145Z,5.08
2023-04-02T12:10:23.581Z,5.52
2023-04-02T12:12:50.056Z,5.59
2023-04-02T12:15:16.559Z,5.61
2023-04-02T12:17:43.068Z,5.21
2023-04-02T12:20:10.083Z,5.39
2023-04-02T12:22:36.755Z,5.79
2023-04-02T12:25:03.187Z,5.33
2023-04-02T12:27:29.783Z,5.43
2023-04-02T12:29:56.283Z,4.87
2023-04-02T12:32:22.780Z,5.14
2023-04-02T12:34:49.269Z,5.36
2023-04-02T12:37:22.670Z,5.45
2023-04-02T12:39:49.096Z,5.80
2023-04-02T12:42:15.580Z,5.65
2023-04-02T12:44:42.053Z,5.61
2023-04-02T12:47:12.850Z,5.59
2023-04-02T12:49:39.307Z,5.86
2023-04-02T12:52:05.785Z,6.34
2023-04-02T12:54:32.385Z,6.05
2023-04-02T12:57:05.455Z,6.33
2023-04-02T12:59:34.582Z,6.13
2023-04-02T13:02:01.225Z,5.53
2023-04-02T13:07:08.364Z,5.78
2023-04-02T13:09:34.826Z,5.80
2023-04-02T13:12:01.329Z,6.11
2023-04-02T13:14:27.787Z,5.98
2023-04-02T13:16:54.234Z,6.34
2023-04-02T13:19:20.705Z,5.88
2023-04-02T13:21:47.192Z,5.85
2023-04-02T13:24:13.606Z,5.94
2023-04-02T13:26:41.917Z,6.14
2023-04-02T13:29:08.388Z,6.15
2023-04-02T13:31:35.020Z,6.04
2023-04-02T13:34:01.779Z,6.12
2023-04-02T13:36:29.632Z,5.99
2023-04-02T13:38:56.144Z,6.13
2023-04-02T13:41:22.775Z,6.58
2023-04-02T13:43:49.212Z,6.59
2023-04-02T13:46:15.953Z,6.57
2023-04-02T13:48:42.449Z,6.66
2023-04-02T13:51:08.850Z,6.63
2023-04-02T13:53:35.679Z,6.66
2023-04-02T13:56:02.113Z,6.24
2023-04-02T13:58:28.546Z,6.00
2023-04-02T14:00:55.024Z,5.89
2023-04-02T14:03:24.481Z,6.01
2023-04-02T14:05:51.284Z,6.01
2023-04-02T14:08:21.098Z,6.09
2023-04-02T14:10:58.504Z,5.78
2023-04-02T14:13:24.935Z,5.42
2023-04-02T14:15:51.369Z,5.22
2023-04-02T14:18:17.844Z,5.68
2023-04-02T14:20:44.297Z,5.76
2023-04-02T14:25:42.065Z,5.38
2023-04-02T14:28:08.506Z,5.70
2023-04-02T14:30:35.285Z,5.46
2023-04-02T14:33:02.037Z,5.44
2023-04-02T14:35:28.529Z,5.17
2023-04-02T14:37:54.998Z,5.13
2023-04-02T14:40:21.456Z,5.28
2023-04-02T14:42:48.176Z,5.16
2023-04-02T14:45:17.989Z,5.31
2023-04-02T14:47:44.476Z,5.30
2023-04-02T14:50:11.732Z,5.03
2023-04-02T14:52:38.147Z,5.34
2023-04-02T14:55:04.624Z,5.26
2023-04-02T14:57:31.182Z,5.46
2023-04-02T14:59:57.681Z,5.38
2023-04-02T15:02:24.120Z,5.26
2023-04-02T15:04:50.613Z,5.33
2023-04-02T15:07:17.043Z,5.37
2023-04-02T15:09:43.504Z,5.06
2023-04-02T15:12:10.615Z,5.06
2023-04-02T15:14:37.100Z,5.02
2023-04-02T15:17:03.578Z,4.79
2023-04-02T15:19:30.039Z,5.19
2023-04-02T15:21:59.904Z,5.32
2023-04-02T15:24:29.289Z,5.37
2023-04-02T15:26:58.977Z,5.34
2023-04-02T15:29:29.340Z,5.65
2023-04-02T15:31:56.504Z,5.31
2023-04-02T15:34:23.014Z,5.36
2023-04-02T15:36:49.518Z,5.30
2023-04-02T15:39:15.928Z,5.25
2023-04-02T15:41:42.945Z,5.02
2023-04-02T15:44:10.849Z,4.99
2023-04-02T15:46:37.315Z,4.95
2023-04-02T15:51:36.081Z,5.31
2023-04-02T15:54:02.491Z,5.58
2023-04-02T15:56:28.887Z,5.71
2023-04-02T15:58:55.684Z,5.42
2023-04-02T16:01:22.176Z,5.47
2023-04-02T16:03:48.813Z,5.45
2023-04-02T16:06:17.282Z,5.52
2023-04-02T16:08:43.732Z,5.38
2023-04-02T16:11:10.139Z,5.34
2023-04-02T16:13:37.075Z,5.39
2023-04-02T16:16:03.662Z,5.64
2023-04-02T16:18:30.109Z,5.80
2023-04-02T16:20:57.591Z,6.03
2023-04-02T16:23:24.818Z,5.74
2023-04-02T16:25:56.615Z,5.77
2023-04-02T16:28:24.967Z,5.52
2023-04-02T16:30:51.501Z,5.65
2023-04-02T16:33:17.960Z,5.68
2023-04-02T16:35:44.459Z,6.12
2023-04-02T16:38:12.124Z,6.06
2023-04-02T16:40:38.769Z,6.08
2023-04-02T16:43:05.222Z,5.81
2023-04-02T16:45:31.922Z,6.11
2023-04-02T16:47:58.450Z,5.81
2023-04-02T16:50:25.039Z,6.18
2023-04-02T16:52:51.572Z,6.04
2023-04-02T16:55:19.882Z,6.03
2023-04-02T16:57:46.567Z,5.95
2023-04-02T17:00:13.051Z,5.75
2023-04-02T17:02:42.280Z,5.60
2023-04-02T17:05:08.785Z,5.51
2023-04-02T17:07:35.890Z,5.59
2023-04-02T17:10:02.334Z,5.86
2023-04-02T17:12:28.740Z,5.56
2023-04-02T17:14:55.257Z,5.44
2023-04-02T17:17:21.759Z,5.46
2023-04-02T17:19:48.204Z,6.03
2023-04-02T17:22:14.667Z,6.10
2023-04-02T17:24:41.083Z,6.01
2023-04-02T17:27:07.545Z,5.93
2023-04-02T17:29:34.038Z,5.61
2023-04-02T17:32:01.788Z,5.74
2023-04-02T17:34:28.551Z,5.57
2023-04-02T17:36:58.956Z,5.60
2023-04-02T17:39:25.833Z,5.84
2023-04-02T17:41:52.236Z,5.78
2023-04-02T17:44:18.672Z,5.62
2023-04-02T17:46:45.130Z,5.76
2023-04-02T17:49:11.582Z,5.69
2023-04-02T17:51:38.048Z,5.74
2023-04-02T17:54:04.481Z,5.84
2023-04-02T17:56:31.090Z,5.60
2023-04-02T17:58:57.567Z,5.47
2023-04-02T18:01:24.011Z,5.56
2023-04-02T18:03:50.789Z,5.84
2023-04-02T18:06:17.274Z,5.65
2023-04-02T18:08:43.727Z,5.87
2023-04-02T18:11:10.635Z,5.90
2023-04-02T18:13:37.096Z,5.86
2023-04-02T18:16:03.600Z,5.58
2023-04-02T18:18:30.081Z,5.53
2023-04-02T18:20:56.521Z,5.34
2023-04-02T18:23:23.002Z,5.35
2023-04-02T18:25:49.457Z,5.26
2023-04-02T18:28:15.976Z,5.44
2023-04-02T18:30:42.447Z,5.34
2023-04-02T18:33:08.911Z,5.42
2023-04-02T18:35:35.602Z,5.38
2023-04-02T18:38:02.063Z,5.37
2023-04-02T18:40:28.557Z,5.37
2023-04-02T18:42:56.910Z,5.40
2023-04-02T18:45:23.369Z,5.44
2023-04-02T18:47:49.837Z,5.42
2023-04-02T18:50:16.612Z,5.43
2023-04-02T18:52:43.222Z,5.42
2023-04-02T18:55:09.660Z,5.33
2023-04-02T18:57:36.291Z,5.45
2023-04-02T19:00:02.845Z,5.59
2023-04-02T19:02:29.380Z,5.55
2023-04-02T19:04:55.925Z,5.35
2023-04-02T19:07:22.364Z,5.29
2023-04-02T19:09:48.918Z,5.37
2023-04-02T19:12:15.383Z,5.21
2023-04-02T19:14:41.945Z,5.37
2023-04-02T19:17:08.450Z,5.35
2023-04-02T19:19:38.420Z,5.24
2023-04-02T19:22:04.938Z,5.26
2023-04-02T19:24:31.695Z,5.37
2023-04-02T19:26:58.086Z,5.41
2023-04-02T19:29:24.527Z,5.51
2023-04-02T19:31:51.378Z,5.54
2023-04-02T19:34:17.850Z,5.29
2023-04-02T19:36:45.547Z,5.26
2023-04-02T19:39:12.032Z,5.26
2023-04-02T19:41:38.443Z,5.19
2023-04-02T19:44:04.931Z,5.18
2023-04-02T19:46:31.371Z,5.29
2023-04-02T19:48:58.059Z,5.26
2023-04-02T19:51:24.504Z,4.97
2023-04-02T19:53:51.206Z,5.11
2023-04-02T19:56:17.665Z,5.31
2023-04-02T19:58:44.106Z,5.28
2023-04-02T20:01:10.734Z,4.97
2023-04-02T20:03:37.223Z,5.38
2023-04-02T20:06:06.884Z,5.33
2023-04-02T20:08:33.404Z,5.26
2023-04-02T20:11:00.259Z,5.12
2023-04-02T20:13:26.702Z,5.12
2023-04-02T20:15:53.261Z,5.05
2023-04-02T20:18:20.692Z,5.09
2023-04-02T20:20:47.107Z,5.07
2023-04-02T20:23:13.529Z,5.04
2023-04-02T20:25:40.021Z,5.16
2023-04-02T20:28:07.659Z,5.13
2023-04-02T20:30:34.296Z,5.02
2023-04-02T20:33:01.254Z,5.10
2023-04-02T20:35:27.898Z,5.06
2023-04-02T20:37:54.334Z,5.10
2023-04-02T20:40:20.948Z,5.18
2023-04-02T20:42:47.387Z,4.96
2023-04-02T21:02:09.169Z,4.92
2023-04-02T21:04:35.619Z,4.88
2023-04-02T21:07:02.075Z,4.84
2023-04-02T21:09:28.483Z,4.90
2023-04-02T21:11:54.971Z,4.87
2023-04-02T21:14:21.392Z,4.74
2023-04-02T21:16:47.893Z,4.97
2023-04-02T21:19:14.317Z,5.12
2023-04-02T21:21:40.940Z,4.98
2023-04-02T21:24:07.483Z,4.87
2023-04-02T21:26:34.751Z,4.72
2023-04-02T21:29:01.487Z,4.68
2023-04-02T21:31:27.963Z,4.66
2023-04-02T21:33:54.759Z,4.60
2023-04-02T21:36:21.783Z,4.63
2023-04-02T21:38:48.286Z,4.62
2023-04-02T21:41:14.698Z,4.67
2023-04-02T21:43:41.137Z,4.78
2023-04-02T21:46:07.809Z,4.64
2023-04-02T21:48:34.284Z,4.57
2023-04-02T21:51:00.716Z,4.67
2023-04-02T21:53:27.153Z,4.70
2023-04-02T21:55:53.579Z,4.70
2023-04-02T21:58:20.000Z,4.65
2023-04-02T22:00:46.426Z,4.75
2023-04-02T22:03:21.376Z,4.45
2023-04-02T22:05:51.800Z,4.58
2023-04-02T22:08:18.205Z,4.53
2023-04-02T22:10:44.608Z,4.53
2023-04-02T22:13:11.015Z,4.60
2023-04-02T22:15:37.604Z,4.49
2023-04-02T22:18:04.093Z,4.57
2023-04-02T22:20:30.548Z,4.52
2023-04-02T22:22:56.993Z,4.39
2023-04-02T22:25:23.440Z,4.39
2023-04-02T22:27:52.097Z,4.37
2023-04-02T22:30:18.519Z,4.31
2023-04-02T22:32:45.388Z,4.42
2023-04-02T22:35:13.470Z,4.50
2023-04-02T22:37:39.952Z,4.25
2023-04-02T22:40:07.016Z,4.19
2023-04-02T22:42:33.541Z,4.29
2023-04-02T22:44:59.964Z,4.48
2023-04-02T22:47:26.400Z,4.24
2023-04-02T22:49:52.853Z,4.20
2023-04-02T22:52:19.257Z,4.37
2023-04-02T22:54:45.651Z,4.15
2023-04-02T22:57:13.153Z,4.13
2023-04-02T22:59:39.621Z,4.11
2023-04-02T23:02:06.074Z,4.09
2023-04-02T23:04:32.560Z,4.10
2023-04-02T23:06:58.978Z,4.07
2023-04-02T23:09:25.416Z,4.14
2023-04-02T23:11:51.826Z,3.95
2023-04-02T23:14:18.238Z,4.06
2023-04-02T23:16:44.654Z,4.13
2023-04-02T23:19:11.081Z,3.95
2023-04-02T23:21:37.511Z,3.95
2023-04-02T23:24:03.939Z,3.98
2023-04-02T23:26:31.569Z,3.78
2023-04-02T23:28:58.041Z,3.93
2023-04-02T23:31:24.494Z,3.74
2023-04-02T23:33:50.936Z,3.86
2023-04-02T23:36:17.422Z,3.70
2023-04-02T23:38:43.907Z,3.79
2023-04-02T23:41:10.333Z,3.85
2023-04-02T23:43:36.756Z,3.78
2023-04-02T23:46:03.196Z,3.82
2023-04-02T23:48:29.642Z,3.76
2023-04-02T23:50:56.058Z,3.71
2023-04-02T23:53:22.482Z,3.50
2023-04-02T23:55:48.970Z,3.25
2023-04-02T23:58:15.623Z,3.33
